sensor_id;sensor_type;location;lat;lon;timestamp;P1;durP1;ratioP1;P2;durP2;ratioP2
59054;SDS011;44845;51.444;7.460;2024-03-25T00:00:54;22.27;;;4.00;;
59054;SDS011;44845;51.444;7.460;2024-03-25T00:03:19;15.95;;;3.30;;
59054;SDS011;44845;51.444;7.460;2024-03-25T00:05:45;17.83;;;3.90;;
59054;SDS011;44845;51.444;7.460;2024-03-25T00:08:11;15.73;;;3.25;;
59054;SDS011;44845;51.444;7.460;2024-03-25T00:10:36;14.00;;;3.20;;
59054;SDS011;44845;51.444;7.460;2024-03-25T00:13:02;17.48;;;3.40;;
59054;SDS011;44845;51.444;7.460;2024-03-25T00:15:27;17.05;;;3.50;;
59054;SDS011;44845;51.444;7.460;2024-03-25T00:17:53;14.98;;;3.55;;
59054;SDS011;44845;51.444;7.460;2024-03-25T00:20:18;15.77;;;3.88;;
59054;SDS011;44845;51.444;7.460;2024-03-25T00:22:43;14.40;;;3.15;;
59054;SDS011;44845;51.444;7.460;2024-03-25T00:25:09;16.17;;;3.83;;
59054;SDS011;44845;51.444;7.460;2024-03-25T00:27:34;14.55;;;3.78;;
59054;SDS011;44845;51.444;7.460;2024-03-25T00:30:00;14.80;;;3.95;;
59054;SDS011;44845;51.444;7.460;2024-03-25T00:32:25;17.20;;;4.25;;
59054;SDS011;44845;51.444;7.460;2024-03-25T00:34:51;17.65;;;4.45;;
59054;SDS011;44845;51.444;7.460;2024-03-25T00:37:16;15.23;;;4.22;;
59054;SDS011;44845;51.444;7.460;2024-03-25T00:39:41;22.17;;;4.30;;
59054;SDS011;44845;51.444;7.460;2024-03-25T00:42:07;15.35;;;4.70;;
59054;SDS011;44845;51.444;7.460;2024-03-25T00:44:32;17.05;;;4.43;;
59054;SDS011;44845;51.444;7.460;2024-03-25T00:46:58;16.63;;;4.72;;
59054;SDS011;44845;51.444;7.460;2024-03-25T00:49:23;14.18;;;4.40;;
59054;SDS011;44845;51.444;7.460;2024-03-25T00:51:49;14.15;;;4.70;;
59054;SDS011;44845;51.444;7.460;2024-03-25T00:54:15;18.98;;;4.10;;
59054;SDS011;44845;51.444;7.460;2024-03-25T00:56:40;18.80;;;4.88;;
59054;SDS011;44845;51.444;7.460;2024-03-25T00:59:05;14.60;;;4.85;;
59054;SDS011;44845;51.444;7.460;2024-03-25T01:01:34;21.10;;;4.65;;
59054;SDS011;44845;51.444;7.460;2024-03-25T01:04:00;21.60;;;5.15;;
59054;SDS011;44845;51.444;7.460;2024-03-25T01:06:26;15.60;;;4.88;;
59054;SDS011;44845;51.444;7.460;2024-03-25T01:08:52;22.65;;;5.10;;
59054;SDS011;44845;51.444;7.460;2024-03-25T01:11:17;22.25;;;5.32;;
59054;SDS011;44845;51.444;7.460;2024-03-25T01:13:43;20.40;;;5.53;;
59054;SDS011;44845;51.444;7.460;2024-03-25T01:16:08;23.95;;;5.78;;
59054;SDS011;44845;51.444;7.460;2024-03-25T01:18:34;24.00;;;6.50;;
59054;SDS011;44845;51.444;7.460;2024-03-25T01:20:59;24.77;;;6.25;;
59054;SDS011;44845;51.444;7.460;2024-03-25T01:23:25;26.83;;;6.20;;
59054;SDS011;44845;51.444;7.460;2024-03-25T01:25:50;24.25;;;6.90;;
59054;SDS011;44845;51.444;7.460;2024-03-25T01:28:16;29.95;;;8.38;;
59054;SDS011;44845;51.444;7.460;2024-03-25T01:30:41;22.60;;;7.68;;
59054;SDS011;44845;51.444;7.460;2024-03-25T01:33:07;28.88;;;8.18;;
59054;SDS011;44845;51.444;7.460;2024-03-25T01:35:32;25.60;;;7.60;;
59054;SDS011;44845;51.444;7.460;2024-03-25T01:37:57;25.55;;;7.82;;
59054;SDS011;44845;51.444;7.460;2024-03-25T01:40:23;28.85;;;8.32;;
59054;SDS011;44845;51.444;7.460;2024-03-25T01:42:55;23.85;;;8.55;;
59054;SDS011;44845;51.444;7.460;2024-03-25T01:45:21;22.88;;;8.50;;
59054;SDS011;44845;51.444;7.460;2024-03-25T01:47:46;25.75;;;8.82;;
59054;SDS011;44845;51.444;7.460;2024-03-25T01:50:12;28.85;;;9.20;;
59054;SDS011;44845;51.444;7.460;2024-03-25T01:52:37;29.25;;;9.65;;
59054;SDS011;44845;51.444;7.460;2024-03-25T01:55:04;25.65;;;9.63;;
59054;SDS011;44845;51.444;7.460;2024-03-25T01:57:32;26.98;;;9.68;;
59054;SDS011;44845;51.444;7.460;2024-03-25T01:59:58;31.92;;;9.32;;
59054;SDS011;44845;51.444;7.460;2024-03-25T02:02:24;28.30;;;9.82;;
59054;SDS011;44845;51.444;7.460;2024-03-25T02:04:49;33.33;;;9.50;;
59054;SDS011;44845;51.444;7.460;2024-03-25T02:07:14;35.80;;;9.30;;
59054;SDS011;44845;51.444;7.460;2024-03-25T02:09:41;23.38;;;8.35;;
59054;SDS011;44845;51.444;7.460;2024-03-25T02:12:07;30.23;;;9.35;;
59054;SDS011;44845;51.444;7.460;2024-03-25T02:14:34;26.60;;;8.43;;
59054;SDS011;44845;51.444;7.460;2024-03-25T02:16:59;31.77;;;7.60;;
59054;SDS011;44845;51.444;7.460;2024-03-25T02:19:25;24.98;;;7.05;;
59054;SDS011;44845;51.444;7.460;2024-03-25T02:21:51;25.80;;;6.47;;
59054;SDS011;44845;51.444;7.460;2024-03-25T02:24:17;25.92;;;6.40;;
59054;SDS011;44845;51.444;7.460;2024-03-25T02:26:45;26.52;;;5.40;;
59054;SDS011;44845;51.444;7.460;2024-03-25T02:29:11;20.50;;;5.72;;
59054;SDS011;44845;51.444;7.460;2024-03-25T02:31:36;22.02;;;4.60;;
59054;SDS011;44845;51.444;7.460;2024-03-25T02:34:02;23.67;;;5.40;;
59054;SDS011;44845;51.444;7.460;2024-03-25T02:36:27;22.70;;;5.30;;
59054;SDS011;44845;51.444;7.460;2024-03-25T02:38:53;17.20;;;4.85;;
59054;SDS011;44845;51.444;7.460;2024-03-25T02:41:18;24.65;;;5.05;;
59054;SDS011;44845;51.444;7.460;2024-03-25T02:43:44;18.55;;;4.85;;
59054;SDS011;44845;51.444;7.460;2024-03-25T02:46:09;17.80;;;5.22;;
59054;SDS011;44845;51.444;7.460;2024-03-25T02:48:35;18.13;;;5.05;;
59054;SDS011;44845;51.444;7.460;2024-03-25T02:51:00;24.10;;;4.78;;
59054;SDS011;44845;51.444;7.460;2024-03-25T02:53:25;18.55;;;5.00;;
59054;SDS011;44845;51.444;7.460;2024-03-25T02:55:51;21.38;;;5.25;;
59054;SDS011;44845;51.444;7.460;2024-03-25T02:58:16;16.83;;;4.88;;
59054;SDS011;44845;51.444;7.460;2024-03-25T03:00:41;23.02;;;5.53;;
59054;SDS011;44845;51.444;7.460;2024-03-25T03:03:07;16.08;;;4.60;;
59054;SDS011;44845;51.444;7.460;2024-03-25T03:05:32;19.58;;;4.53;;
59054;SDS011;44845;51.444;7.460;2024-03-25T03:07:58;16.95;;;4.90;;
59054;SDS011;44845;51.444;7.460;2024-03-25T03:10:23;18.13;;;4.63;;
59054;SDS011;44845;51.444;7.460;2024-03-25T03:12:48;13.00;;;3.97;;
59054;SDS011;44845;51.444;7.460;2024-03-25T03:15:14;17.42;;;4.45;;
59054;SDS011;44845;51.444;7.460;2024-03-25T03:17:40;18.17;;;3.92;;
59054;SDS011;44845;51.444;7.460;2024-03-25T03:20:05;17.13;;;3.90;;
59054;SDS011;44845;51.444;7.460;2024-03-25T03:22:31;20.35;;;4.40;;
59054;SDS011;44845;51.444;7.460;2024-03-25T03:24:57;20.00;;;4.43;;
59054;SDS011;44845;51.444;7.460;2024-03-25T03:27:23;22.10;;;5.25;;
59054;SDS011;44845;51.444;7.460;2024-03-25T03:29:48;17.63;;;5.57;;
59054;SDS011;44845;51.444;7.460;2024-03-25T03:32:14;21.77;;;5.68;;
59054;SDS011;44845;51.444;7.460;2024-03-25T03:34:39;26.85;;;6.60;;
59054;SDS011;44845;51.444;7.460;2024-03-25T03:37:05;22.05;;;6.70;;
59054;SDS011;44845;51.444;7.460;2024-03-25T03:39:30;17.08;;;6.85;;
59054;SDS011;44845;51.444;7.460;2024-03-25T03:41:55;19.42;;;7.80;;
59054;SDS011;44845;51.444;7.460;2024-03-25T03:44:21;23.52;;;7.45;;
59054;SDS011;44845;51.444;7.460;2024-03-25T03:46:46;18.17;;;6.95;;
59054;SDS011;44845;51.444;7.460;2024-03-25T03:49:11;22.60;;;7.78;;
59054;SDS011;44845;51.444;7.460;2024-03-25T03:51:37;23.08;;;7.40;;
59054;SDS011;44845;51.444;7.460;2024-03-25T03:54:02;25.30;;;9.00;;
59054;SDS011;44845;51.444;7.460;2024-03-25T03:56:28;21.55;;;7.97;;
59054;SDS011;44845;51.444;7.460;2024-03-25T03:58:53;24.10;;;7.75;;
59054;SDS011;44845;51.444;7.460;2024-03-25T04:01:19;23.20;;;7.30;;
59054;SDS011;44845;51.444;7.460;2024-03-25T04:03:44;25.70;;;7.03;;
59054;SDS011;44845;51.444;7.460;2024-03-25T04:06:10;22.42;;;7.88;;
59054;SDS011;44845;51.444;7.460;2024-03-25T04:08:37;24.38;;;7.32;;
59054;SDS011;44845;51.444;7.460;2024-03-25T04:11:03;24.25;;;6.68;;
59054;SDS011;44845;51.444;7.460;2024-03-25T04:13:31;31.17;;;8.25;;
59054;SDS011;44845;51.444;7.460;2024-03-25T04:15:59;19.75;;;6.88;;
59054;SDS011;44845;51.444;7.460;2024-03-25T04:18:27;21.67;;;7.35;;
59054;SDS011;44845;51.444;7.460;2024-03-25T04:20:53;25.65;;;7.45;;
59054;SDS011;44845;51.444;7.460;2024-03-25T04:23:18;23.30;;;7.10;;
59054;SDS011;44845;51.444;7.460;2024-03-25T04:25:43;31.00;;;7.40;;
59054;SDS011;44845;51.444;7.460;2024-03-25T04:28:09;28.65;;;7.15;;
59054;SDS011;44845;51.444;7.460;2024-03-25T04:30:35;23.92;;;7.78;;
59054;SDS011;44845;51.444;7.460;2024-03-25T04:33:01;21.17;;;6.82;;
59054;SDS011;44845;51.444;7.460;2024-03-25T04:35:26;23.25;;;7.18;;
59054;SDS011;44845;51.444;7.460;2024-03-25T04:37:52;26.45;;;7.15;;
59054;SDS011;44845;51.444;7.460;2024-03-25T04:40:20;26.98;;;7.97;;
59054;SDS011;44845;51.444;7.460;2024-03-25T04:42:45;25.85;;;7.28;;
59054;SDS011;44845;51.444;7.460;2024-03-25T04:45:11;23.27;;;6.70;;
59054;SDS011;44845;51.444;7.460;2024-03-25T04:47:37;21.92;;;6.72;;
59054;SDS011;44845;51.444;7.460;2024-03-25T04:50:02;20.65;;;6.30;;
59054;SDS011;44845;51.444;7.460;2024-03-25T04:52:28;22.33;;;6.85;;
59054;SDS011;44845;51.444;7.460;2024-03-25T04:54:53;20.67;;;6.32;;
59054;SDS011;44845;51.444;7.460;2024-03-25T04:57:18;22.15;;;6.40;;
59054;SDS011;44845;51.444;7.460;2024-03-25T04:59:44;21.67;;;5.68;;
59054;SDS011;44845;51.444;7.460;2024-03-25T05:02:09;22.65;;;6.07;;
59054;SDS011;44845;51.444;7.460;2024-03-25T05:04:34;21.20;;;5.75;;
59054;SDS011;44845;51.444;7.460;2024-03-25T05:07:00;17.75;;;5.70;;
59054;SDS011;44845;51.444;7.460;2024-03-25T05:09:26;19.35;;;7.00;;
59054;SDS011;44845;51.444;7.460;2024-03-25T05:11:51;25.95;;;6.22;;
59054;SDS011;44845;51.444;7.460;2024-03-25T05:14:17;20.55;;;6.50;;
59054;SDS011;44845;51.444;7.460;2024-03-25T05:16:42;20.75;;;6.25;;
59054;SDS011;44845;51.444;7.460;2024-03-25T05:19:07;22.27;;;5.75;;
59054;SDS011;44845;51.444;7.460;2024-03-25T05:21:33;20.63;;;5.70;;
59054;SDS011;44845;51.444;7.460;2024-03-25T05:23:58;22.45;;;5.65;;
59054;SDS011;44845;51.444;7.460;2024-03-25T05:26:24;20.63;;;5.85;;
59054;SDS011;44845;51.444;7.460;2024-03-25T05:28:53;21.23;;;5.82;;
59054;SDS011;44845;51.444;7.460;2024-03-25T05:31:22;21.77;;;5.38;;
59054;SDS011;44845;51.444;7.460;2024-03-25T05:33:50;17.30;;;5.28;;
59054;SDS011;44845;51.444;7.460;2024-03-25T05:36:15;22.75;;;6.43;;
59054;SDS011;44845;51.444;7.460;2024-03-25T05:38:41;19.98;;;5.25;;
59054;SDS011;44845;51.444;7.460;2024-03-25T05:41:07;19.38;;;5.22;;
59054;SDS011;44845;51.444;7.460;2024-03-25T05:43:33;20.80;;;5.38;;
59054;SDS011;44845;51.444;7.460;2024-03-25T05:45:58;16.63;;;5.15;;
59054;SDS011;44845;51.444;7.460;2024-03-25T05:48:24;17.70;;;4.95;;
59054;SDS011;44845;51.444;7.460;2024-03-25T05:51:03;17.20;;;4.93;;
59054;SDS011;44845;51.444;7.460;2024-03-25T05:53:33;20.55;;;5.57;;
59054;SDS011;44845;51.444;7.460;2024-03-25T05:55:59;19.02;;;5.57;;
59054;SDS011;44845;51.444;7.460;2024-03-25T05:58:25;16.42;;;5.47;;
59054;SDS011;44845;51.444;7.460;2024-03-25T06:00:50;26.67;;;5.75;;
59054;SDS011;44845;51.444;7.460;2024-03-25T06:03:16;22.90;;;5.55;;
59054;SDS011;44845;51.444;7.460;2024-03-25T06:05:44;25.92;;;5.72;;
59054;SDS011;44845;51.444;7.460;2024-03-25T06:08:10;21.75;;;5.60;;
59054;SDS011;44845;51.444;7.460;2024-03-25T06:11:05;16.00;;;4.82;;
59054;SDS011;44845;51.444;7.460;2024-03-25T06:13:31;17.77;;;4.68;;
59054;SDS011;44845;51.444;7.460;2024-03-25T06:15:56;24.67;;;5.20;;
59054;SDS011;44845;51.444;7.460;2024-03-25T06:18:22;19.08;;;5.80;;
59054;SDS011;44845;51.444;7.460;2024-03-25T06:20:47;19.55;;;4.75;;
59054;SDS011;44845;51.444;7.460;2024-03-25T06:23:22;20.20;;;5.20;;
59054;SDS011;44845;51.444;7.460;2024-03-25T06:25:48;18.67;;;5.93;;
59054;SDS011;44845;51.444;7.460;2024-03-25T06:28:14;19.80;;;5.70;;
59054;SDS011;44845;51.444;7.460;2024-03-25T06:30:42;19.13;;;6.20;;
59054;SDS011;44845;51.444;7.460;2024-03-25T06:33:26;18.40;;;5.35;;
59054;SDS011;44845;51.444;7.460;2024-03-25T06:36:10;18.20;;;5.22;;
59054;SDS011;44845;51.444;7.460;2024-03-25T06:38:35;17.98;;;5.80;;
59054;SDS011;44845;51.444;7.460;2024-03-25T06:41:01;21.35;;;5.57;;
59054;SDS011;44845;51.444;7.460;2024-03-25T06:43:26;19.33;;;5.45;;
59054;SDS011;44845;51.444;7.460;2024-03-25T06:45:51;16.23;;;4.95;;
59054;SDS011;44845;51.444;7.460;2024-03-25T06:48:17;18.48;;;5.05;;
59054;SDS011;44845;51.444;7.460;2024-03-25T06:50:51;14.07;;;4.47;;
59054;SDS011;44845;51.444;7.460;2024-03-25T06:53:24;16.52;;;4.70;;
59054;SDS011;44845;51.444;7.460;2024-03-25T06:55:50;23.50;;;4.85;;
59054;SDS011;44845;51.444;7.460;2024-03-25T06:58:17;16.67;;;4.90;;
59054;SDS011;44845;51.444;7.460;2024-03-25T07:00:43;18.42;;;5.20;;
59054;SDS011;44845;51.444;7.460;2024-03-25T07:03:09;16.63;;;4.63;;
59054;SDS011;44845;51.444;7.460;2024-03-25T07:05:34;18.85;;;4.82;;
59054;SDS011;44845;51.444;7.460;2024-03-25T07:07:59;19.73;;;4.32;;
59054;SDS011;44845;51.444;7.460;2024-03-25T07:10:25;17.38;;;4.20;;
59054;SDS011;44845;51.444;7.460;2024-03-25T07:12:50;18.08;;;4.93;;
59054;SDS011;44845;51.444;7.460;2024-03-25T07:15:15;18.60;;;4.35;;
59054;SDS011;44845;51.444;7.460;2024-03-25T07:17:41;15.25;;;4.03;;
59054;SDS011;44845;51.444;7.460;2024-03-25T07:20:06;22.98;;;5.22;;
59054;SDS011;44845;51.444;7.460;2024-03-25T07:22:33;17.42;;;4.40;;
59054;SDS011;44845;51.444;7.460;2024-03-25T07:24:59;18.85;;;5.05;;
59054;SDS011;44845;51.444;7.460;2024-03-25T07:27:24;15.00;;;4.03;;
59054;SDS011;44845;51.444;7.460;2024-03-25T07:29:49;15.85;;;4.13;;
59054;SDS011;44845;51.444;7.460;2024-03-25T07:32:16;18.38;;;4.30;;
59054;SDS011;44845;51.444;7.460;2024-03-25T07:34:41;16.35;;;4.13;;
59054;SDS011;44845;51.444;7.460;2024-03-25T07:37:07;17.20;;;4.15;;
59054;SDS011;44845;51.444;7.460;2024-03-25T07:39:32;17.75;;;4.05;;
59054;SDS011;44845;51.444;7.460;2024-03-25T07:41:57;16.67;;;4.28;;
59054;SDS011;44845;51.444;7.460;2024-03-25T07:44:24;20.15;;;4.03;;
59054;SDS011;44845;51.444;7.460;2024-03-25T07:46:49;26.88;;;4.35;;
59054;SDS011;44845;51.444;7.460;2024-03-25T07:49:15;15.68;;;3.95;;
59054;SDS011;44845;51.444;7.460;2024-03-25T07:51:40;24.48;;;4.20;;
59054;SDS011;44845;51.444;7.460;2024-03-25T07:54:08;26.02;;;4.07;;
59054;SDS011;44845;51.444;7.460;2024-03-25T07:56:35;20.88;;;3.97;;
59054;SDS011;44845;51.444;7.460;2024-03-25T07:59:02;13.50;;;3.40;;
59054;SDS011;44845;51.444;7.460;2024-03-25T08:01:27;14.98;;;3.42;;
59054;SDS011;44845;51.444;7.460;2024-03-25T08:03:54;18.27;;;3.53;;
59054;SDS011;44845;51.444;7.460;2024-03-25T08:06:19;19.15;;;3.13;;
59054;SDS011;44845;51.444;7.460;2024-03-25T08:08:46;22.90;;;3.67;;
59054;SDS011;44845;51.444;7.460;2024-03-25T08:11:11;14.00;;;2.92;;
59054;SDS011;44845;51.444;7.460;2024-03-25T08:13:37;13.05;;;3.17;;
59054;SDS011;44845;51.444;7.460;2024-03-25T08:16:02;16.15;;;2.97;;
59054;SDS011;44845;51.444;7.460;2024-03-25T08:18:28;16.67;;;3.25;;
59054;SDS011;44845;51.444;7.460;2024-03-25T08:20:53;20.00;;;3.03;;
59054;SDS011;44845;51.444;7.460;2024-03-25T08:23:19;11.60;;;2.75;;
59054;SDS011;44845;51.444;7.460;2024-03-25T08:25:44;11.30;;;2.40;;
59054;SDS011;44845;51.444;7.460;2024-03-25T08:28:09;17.77;;;2.65;;
59054;SDS011;44845;51.444;7.460;2024-03-25T08:30:35;16.20;;;3.08;;
59054;SDS011;44845;51.444;7.460;2024-03-25T08:33:01;13.25;;;2.95;;
59054;SDS011;44845;51.444;7.460;2024-03-25T08:35:27;19.38;;;2.97;;
59054;SDS011;44845;51.444;7.460;2024-03-25T08:37:52;19.42;;;3.50;;
59054;SDS011;44845;51.444;7.460;2024-03-25T08:40:17;15.45;;;2.67;;
59054;SDS011;44845;51.444;7.460;2024-03-25T08:42:43;13.20;;;2.50;;
59054;SDS011;44845;51.444;7.460;2024-03-25T08:45:08;17.42;;;2.85;;
59054;SDS011;44845;51.444;7.460;2024-03-25T08:47:34;14.70;;;2.38;;
59054;SDS011;44845;51.444;7.460;2024-03-25T08:49:59;20.67;;;2.53;;
59054;SDS011;44845;51.444;7.460;2024-03-25T08:52:24;11.25;;;2.00;;
59054;SDS011;44845;51.444;7.460;2024-03-25T08:54:50;12.82;;;2.38;;
59054;SDS011;44845;51.444;7.460;2024-03-25T08:57:15;13.35;;;2.58;;
59054;SDS011;44845;51.444;7.460;2024-03-25T08:59:40;14.27;;;2.60;;
59054;SDS011;44845;51.444;7.460;2024-03-25T09:02:06;11.35;;;2.45;;
59054;SDS011;44845;51.444;7.460;2024-03-25T09:04:32;20.58;;;2.95;;
59054;SDS011;44845;51.444;7.460;2024-03-25T09:06:58;17.33;;;2.58;;
59054;SDS011;44845;51.444;7.460;2024-03-25T09:09:23;12.95;;;2.33;;
59054;SDS011;44845;51.444;7.460;2024-03-25T09:12:07;11.55;;;2.28;;
59054;SDS011;44845;51.444;7.460;2024-03-25T09:14:33;15.48;;;2.40;;
59054;SDS011;44845;51.444;7.460;2024-03-25T09:16:58;12.50;;;2.28;;
59054;SDS011;44845;51.444;7.460;2024-03-25T09:19:23;15.15;;;2.42;;
59054;SDS011;44845;51.444;7.460;2024-03-25T09:21:49;10.25;;;2.10;;
59054;SDS011;44845;51.444;7.460;2024-03-25T09:24:14;7.65;;;1.67;;
59054;SDS011;44845;51.444;7.460;2024-03-25T09:26:40;12.10;;;1.90;;
59054;SDS011;44845;51.444;7.460;2024-03-25T09:29:05;11.95;;;2.40;;
59054;SDS011;44845;51.444;7.460;2024-03-25T09:31:31;9.55;;;1.25;;
59054;SDS011;44845;51.444;7.460;2024-03-25T09:33:56;11.63;;;1.88;;
59054;SDS011;44845;51.444;7.460;2024-03-25T09:36:22;11.10;;;1.77;;
59054;SDS011;44845;51.444;7.460;2024-03-25T09:38:47;15.80;;;2.03;;
59054;SDS011;44845;51.444;7.460;2024-03-25T09:41:12;11.60;;;2.17;;
59054;SDS011;44845;51.444;7.460;2024-03-25T09:43:42;14.90;;;1.65;;
59054;SDS011;44845;51.444;7.460;2024-03-25T09:46:10;11.05;;;1.77;;
59054;SDS011;44845;51.444;7.460;2024-03-25T09:48:36;12.80;;;1.80;;
59054;SDS011;44845;51.444;7.460;2024-03-25T09:51:02;11.30;;;1.70;;
59054;SDS011;44845;51.444;7.460;2024-03-25T09:53:28;12.38;;;1.88;;
59054;SDS011;44845;51.444;7.460;2024-03-25T09:55:53;9.27;;;1.98;;
59054;SDS011;44845;51.444;7.460;2024-03-25T09:58:21;11.60;;;2.30;;
59054;SDS011;44845;51.444;7.460;2024-03-25T10:00:47;10.38;;;1.95;;
59054;SDS011;44845;51.444;7.460;2024-03-25T10:03:12;11.20;;;1.95;;
59054;SDS011;44845;51.444;7.460;2024-03-25T10:05:39;15.70;;;2.42;;
59054;SDS011;44845;51.444;7.460;2024-03-25T10:08:05;7.63;;;1.90;;
59054;SDS011;44845;51.444;7.460;2024-03-25T10:10:30;11.23;;;1.90;;
59054;SDS011;44845;51.444;7.460;2024-03-25T10:12:56;7.93;;;2.00;;
59054;SDS011;44845;51.444;7.460;2024-03-25T10:15:21;9.48;;;1.92;;
59054;SDS011;44845;51.444;7.460;2024-03-25T10:17:49;10.63;;;2.05;;
59054;SDS011;44845;51.444;7.460;2024-03-25T10:20:14;9.95;;;1.77;;
59054;SDS011;44845;51.444;7.460;2024-03-25T10:22:42;8.07;;;1.30;;
59054;SDS011;44845;51.444;7.460;2024-03-25T10:25:28;11.88;;;2.13;;
59054;SDS011;44845;51.444;7.460;2024-03-25T10:27:58;7.45;;;1.55;;
59054;SDS011;44845;51.444;7.460;2024-03-25T10:30:24;11.93;;;1.92;;
59054;SDS011;44845;51.444;7.460;2024-03-25T10:33:03;10.07;;;1.88;;
59054;SDS011;44845;51.444;7.460;2024-03-25T10:35:36;11.85;;;1.70;;
59054;SDS011;44845;51.444;7.460;2024-03-25T10:38:03;10.27;;;1.50;;
59054;SDS011;44845;51.444;7.460;2024-03-25T10:40:34;8.27;;;1.80;;
59054;SDS011;44845;51.444;7.460;2024-03-25T10:43:02;7.25;;;1.40;;
59054;SDS011;44845;51.444;7.460;2024-03-25T10:45:29;11.45;;;1.98;;
59054;SDS011;44845;51.444;7.460;2024-03-25T10:48:00;5.38;;;1.38;;
59054;SDS011;44845;51.444;7.460;2024-03-25T10:50:35;7.32;;;0.95;;
59054;SDS011;44845;51.444;7.460;2024-03-25T10:53:02;8.88;;;1.73;;
59054;SDS011;44845;51.444;7.460;2024-03-25T10:55:29;11.75;;;1.40;;
59054;SDS011;44845;51.444;7.460;2024-03-25T10:57:56;7.60;;;1.17;;
59054;SDS011;44845;51.444;7.460;2024-03-25T11:00:22;7.80;;;1.42;;
59054;SDS011;44845;51.444;7.460;2024-03-25T11:02:49;13.82;;;1.50;;
59054;SDS011;44845;51.444;7.460;2024-03-25T11:05:16;10.88;;;1.50;;
59054;SDS011;44845;51.444;7.460;2024-03-25T11:07:42;9.05;;;1.67;;
59054;SDS011;44845;51.444;7.460;2024-03-25T11:10:08;7.75;;;1.23;;
59054;SDS011;44845;51.444;7.460;2024-03-25T11:12:37;6.18;;;1.45;;
59054;SDS011;44845;51.444;7.460;2024-03-25T11:15:05;6.53;;;1.05;;
59054;SDS011;44845;51.444;7.460;2024-03-25T11:17:32;7.78;;;0.85;;
59054;SDS011;44845;51.444;7.460;2024-03-25T11:20:11;9.65;;;1.58;;
59054;SDS011;44845;51.444;7.460;2024-03-25T11:22:51;9.07;;;1.02;;
59054;SDS011;44845;51.444;7.460;2024-03-25T11:25:17;5.70;;;1.00;;
59054;SDS011;44845;51.444;7.460;2024-03-25T11:27:45;5.38;;;1.27;;
59054;SDS011;44845;51.444;7.460;2024-03-25T11:30:11;8.32;;;1.45;;
59054;SDS011;44845;51.444;7.460;2024-03-25T11:32:44;4.07;;;0.88;;
59054;SDS011;44845;51.444;7.460;2024-03-25T11:35:11;6.20;;;1.63;;
59054;SDS011;44845;51.444;7.460;2024-03-25T11:37:40;8.10;;;1.17;;
59054;SDS011;44845;51.444;7.460;2024-03-25T11:40:07;6.13;;;1.25;;
59054;SDS011;44845;51.444;7.460;2024-03-25T11:42:34;8.98;;;1.50;;
59054;SDS011;44845;51.444;7.460;2024-03-25T11:45:01;5.28;;;0.88;;
59054;SDS011;44845;51.444;7.460;2024-03-25T11:47:27;10.15;;;0.80;;
59054;SDS011;44845;51.444;7.460;2024-03-25T11:49:53;7.57;;;2.05;;
59054;SDS011;44845;51.444;7.460;2024-03-25T11:52:18;5.50;;;1.58;;
59054;SDS011;44845;51.444;7.460;2024-03-25T11:54:44;9.25;;;1.30;;
59054;SDS011;44845;51.444;7.460;2024-03-25T11:57:09;9.73;;;1.38;;
59054;SDS011;44845;51.444;7.460;2024-03-25T11:59:34;8.45;;;1.20;;
59054;SDS011;44845;51.444;7.460;2024-03-25T12:02:05;7.90;;;1.27;;
59054;SDS011;44845;51.444;7.460;2024-03-25T12:04:31;5.55;;;1.13;;
59054;SDS011;44845;51.444;7.460;2024-03-25T12:06:57;6.13;;;1.20;;
59054;SDS011;44845;51.444;7.460;2024-03-25T12:09:22;6.07;;;1.13;;
59054;SDS011;44845;51.444;7.460;2024-03-25T12:12:06;7.18;;;1.20;;
59054;SDS011;44845;51.444;7.460;2024-03-25T12:14:32;7.38;;;1.30;;
59054;SDS011;44845;51.444;7.460;2024-03-25T12:16:58;4.53;;;1.38;;
59054;SDS011;44845;51.444;7.460;2024-03-25T12:19:24;6.80;;;1.15;;
59054;SDS011;44845;51.444;7.460;2024-03-25T12:21:49;6.45;;;1.15;;
59054;SDS011;44845;51.444;7.460;2024-03-25T12:24:15;5.93;;;1.33;;
59054;SDS011;44845;51.444;7.460;2024-03-25T12:26:41;6.15;;;1.17;;
59054;SDS011;44845;51.444;7.460;2024-03-25T12:29:06;5.60;;;1.02;;
59054;SDS011;44845;51.444;7.460;2024-03-25T12:31:32;4.13;;;0.65;;
59054;SDS011;44845;51.444;7.460;2024-03-25T12:33:57;4.60;;;1.00;;
59054;SDS011;44845;51.444;7.460;2024-03-25T12:36:23;8.13;;;1.30;;
59054;SDS011;44845;51.444;7.460;2024-03-25T12:38:54;4.30;;;1.13;;
59054;SDS011;44845;51.444;7.460;2024-03-25T12:41:21;7.15;;;1.00;;
59054;SDS011;44845;51.444;7.460;2024-03-25T12:43:48;6.90;;;1.30;;
59054;SDS011;44845;51.444;7.460;2024-03-25T12:46:15;6.80;;;1.02;;
59054;SDS011;44845;51.444;7.460;2024-03-25T12:48:40;8.52;;;1.40;;
59054;SDS011;44845;51.444;7.460;2024-03-25T12:51:11;6.30;;;1.30;;
59054;SDS011;44845;51.444;7.460;2024-03-25T12:53:38;5.75;;;1.30;;
59054;SDS011;44845;51.444;7.460;2024-03-25T12:56:03;3.83;;;0.75;;
59054;SDS011;44845;51.444;7.460;2024-03-25T12:58:29;5.47;;;1.50;;
59054;SDS011;44845;51.444;7.460;2024-03-25T13:00:54;9.27;;;1.17;;
59054;SDS011;44845;51.444;7.460;2024-03-25T13:03:20;2.58;;;1.10;;
59054;SDS011;44845;51.444;7.460;2024-03-25T13:05:46;5.78;;;1.10;;
59054;SDS011;44845;51.444;7.460;2024-03-25T13:08:11;5.75;;;1.00;;
59054;SDS011;44845;51.444;7.460;2024-03-25T13:10:36;5.13;;;0.85;;
59054;SDS011;44845;51.444;7.460;2024-03-25T13:13:02;12.88;;;1.48;;
59054;SDS011;44845;51.444;7.460;2024-03-25T13:15:27;6.80;;;1.55;;
59054;SDS011;44845;51.444;7.460;2024-03-25T13:17:53;8.73;;;1.63;;
59054;SDS011;44845;51.444;7.460;2024-03-25T13:20:18;4.00;;;1.00;;
59054;SDS011;44845;51.444;7.460;2024-03-25T13:22:44;7.43;;;1.42;;
59054;SDS011;44845;51.444;7.460;2024-03-25T13:25:11;2.97;;;0.85;;
59054;SDS011;44845;51.444;7.460;2024-03-25T13:27:36;3.42;;;0.80;;
59054;SDS011;44845;51.444;7.460;2024-03-25T13:30:03;4.65;;;1.10;;
59054;SDS011;44845;51.444;7.460;2024-03-25T13:32:29;6.75;;;2.40;;
59054;SDS011;44845;51.444;7.460;2024-03-25T13:34:54;6.53;;;1.10;;
59054;SDS011;44845;51.444;7.460;2024-03-25T13:37:19;6.85;;;1.02;;
59054;SDS011;44845;51.444;7.460;2024-03-25T13:39:44;7.10;;;1.25;;
59054;SDS011;44845;51.444;7.460;2024-03-25T13:42:11;5.25;;;1.27;;
59054;SDS011;44845;51.444;7.460;2024-03-25T13:44:36;8.45;;;1.20;;
59054;SDS011;44845;51.444;7.460;2024-03-25T13:47:01;6.38;;;1.20;;
59054;SDS011;44845;51.444;7.460;2024-03-25T13:49:27;6.25;;;0.70;;
59054;SDS011;44845;51.444;7.460;2024-03-25T13:51:57;5.47;;;0.90;;
59054;SDS011;44845;51.444;7.460;2024-03-25T13:54:23;7.25;;;1.00;;
59054;SDS011;44845;51.444;7.460;2024-03-25T13:56:49;6.50;;;1.02;;
59054;SDS011;44845;51.444;7.460;2024-03-25T13:59:14;7.07;;;1.00;;
59054;SDS011;44845;51.444;7.460;2024-03-25T14:01:40;5.00;;;0.80;;
59054;SDS011;44845;51.444;7.460;2024-03-25T14:04:06;6.97;;;0.93;;
59054;SDS011;44845;51.444;7.460;2024-03-25T14:06:31;4.70;;;0.82;;
59054;SDS011;44845;51.444;7.460;2024-03-25T14:08:58;7.35;;;1.02;;
59054;SDS011;44845;51.444;7.460;2024-03-25T14:11:24;5.82;;;1.20;;
59054;SDS011;44845;51.444;7.460;2024-03-25T14:13:49;4.47;;;1.10;;
59054;SDS011;44845;51.444;7.460;2024-03-25T14:16:15;5.45;;;0.82;;
59054;SDS011;44845;51.444;7.460;2024-03-25T14:18:40;7.00;;;1.10;;
59054;SDS011;44845;51.444;7.460;2024-03-25T14:21:06;6.15;;;1.35;;
59054;SDS011;44845;51.444;7.460;2024-03-25T14:23:32;5.43;;;1.20;;
59054;SDS011;44845;51.444;7.460;2024-03-25T14:25:57;7.35;;;1.00;;
59054;SDS011;44845;51.444;7.460;2024-03-25T14:28:23;4.82;;;0.95;;
59054;SDS011;44845;51.444;7.460;2024-03-25T14:30:48;7.47;;;1.02;;
59054;SDS011;44845;51.444;7.460;2024-03-25T14:33:13;5.50;;;0.90;;